sensor_id;sensor_type;location;lat;lon;timestamp;temperature;humidity
15386;DHT22;7791;47.246;9.648;2023-02-01T00:01:07;2.10;99.90
15386;DHT22;7791;47.246;9.648;2023-02-01T00:03:33;2.00;99.90
15386;DHT22;7791;47.246;9.648;2023-02-01T00:06:00;1.90;99.90
15386;DHT22;7791;47.246;9.648;2023-02-01T00:08:29;2.00;99.90
15386;DHT22;7791;47.246;9.648;2023-02-01T00:10:59;2.00;99.90
15386;DHT22;7791;47.246;9.648;2023-02-01T00:13:25;1.90;99.90
15386;DHT22;7791;47.246;9.648;2023-02-01T00:15:53;1.90;99.90
15386;DHT22;7791;47.246;9.648;2023-02-01T00:18:19;1.90;99.90
15386;DHT22;7791;47.246;9.648;2023-02-01T00:20:46;1.80;99.90
15386;DHT22;7791;47.246;9.648;2023-02-01T00:23:13;1.80;99.90
15386;DHT22;7791;47.246;9.648;2023-02-01T00:25:40;1.70;99.90
15386;DHT22;7791;47.246;9.648;2023-02-01T00:28:06;1.60;99.90
15386;DHT22;7791;47.246;9.648;2023-02-01T00:30:32;1.50;99.90
15386;DHT22;7791;47.246;9.648;2023-02-01T00:32:58;1.50;99.90
15386;DHT22;7791;47.246;9.648;2023-02-01T00:35:24;1.50;99.90
15386;DHT22;7791;47.246;9.648;2023-02-01T00:37:53;1.40;99.90
15386;DHT22;7791;47.246;9.648;2023-02-01T00:40:19;1.30;99.90
15386;DHT22;7791;47.246;9.648;2023-02-01T00:42:51;1.10;99.90
15386;DHT22;7791;47.246;9.648;2023-02-01T00:45:17;1.10;99.90
15386;DHT22;7791;47.246;9.648;2023-02-01T00:47:43;1.10;99.90
15386;DHT22;7791;47.246;9.648;2023-02-01T00:50:10;1.20;99.90
15386;DHT22;7791;47.246;9.648;2023-02-01T00:52:36;1.20;99.90
15386;DHT22;7791;47.246;9.648;2023-02-01T00:55:02;1.20;99.90
15386;DHT22;7791;47.246;9.648;2023-02-01T00:57:28;1.20;99.90
15386;DHT22;7791;47.246;9.648;2023-02-01T00:59:59;1.20;99.90
15386;DHT22;7791;47.246;9.648;2023-02-01T01:02:26;1.20;99.90
15386;DHT22;7791;47.246;9.648;2023-02-01T01:04:52;1.30;99.90
15386;DHT22;7791;47.246;9.648;2023-02-01T01:07:18;1.30;99.90
15386;DHT22;7791;47.246;9.648;2023-02-01T01:09:44;1.30;99.90
15386;DHT22;7791;47.246;9.648;2023-02-01T01:12:10;1.40;99.90
15386;DHT22;7791;47.246;9.648;2023-02-01T01:14:36;1.50;99.90
15386;DHT22;7791;47.246;9.648;2023-02-01T01:17:06;1.50;99.90
15386;DHT22;7791;47.246;9.648;2023-02-01T01:19:34;1.50;99.90
15386;DHT22;7791;47.246;9.648;2023-02-01T01:22:00;1.50;99.90
15386;DHT22;7791;47.246;9.648;2023-02-01T01:24:26;1.50;99.90
15386;DHT22;7791;47.246;9.648;2023-02-01T01:26:52;1.50;99.90
15386;DHT22;7791;47.246;9.648;2023-02-01T01:29:18;1.50;99.90
15386;DHT22;7791;47.246;9.648;2023-02-01T01:31:44;1.40;99.90
15386;DHT22;7791;47.246;9.648;2023-02-01T01:34:13;1.30;99.90
15386;DHT22;7791;47.246;9.648;2023-02-01T01:36:38;1.30;99.90
15386;DHT22;7791;47.246;9.648;2023-02-01T01:39:06;1.10;99.90
15386;DHT22;7791;47.246;9.648;2023-02-01T01:41:33;1.00;99.90
15386;DHT22;7791;47.246;9.648;2023-02-01T01:44:01;0.90;99.90
15386;DHT22;7791;47.246;9.648;2023-02-01T01:46:30;0.90;99.90
15386;DHT22;7791;47.246;9.648;2023-02-01T01:49:02;0.80;99.90
15386;DHT22;7791;47.246;9.648;2023-02-01T01:51:36;0.80;99.90
15386;DHT22;7791;47.246;9.648;2023-02-01T01:54:06;0.80;99.90
15386;DHT22;7791;47.246;9.648;2023-02-01T01:56:34;0.70;99.90
15386;DHT22;7791;47.246;9.648;2023-02-01T01:59:01;0.70;99.90
15386;DHT22;7791;47.246;9.648;2023-02-01T02:01:29;0.70;99.90
15386;DHT22;7791;47.246;9.648;2023-02-01T02:03:56;0.70;99.90
15386;DHT22;7791;47.246;9.648;2023-02-01T02:06:33;0.40;99.90
15386;DHT22;7791;47.246;9.648;2023-02-01T02:09:01;0.30;99.90
15386;DHT22;7791;47.246;9.648;2023-02-01T02:11:28;0.20;99.90
15386;DHT22;7791;47.246;9.648;2023-02-01T02:13:55;0.10;99.90
15386;DHT22;7791;47.246;9.648;2023-02-01T02:16:48;-0.10;99.90
15386;DHT22;7791;47.246;9.648;2023-02-01T02:19:41;-0.20;99.90
15386;DHT22;7791;47.246;9.648;2023-02-01T02:29:13;-0.40;99.90
15386;DHT22;7791;47.246;9.648;2023-02-01T02:31:52;-0.50;99.90
15386;DHT22;7791;47.246;9.648;2023-02-01T02:34:29;-0.50;99.90
15386;DHT22;7791;47.246;9.648;2023-02-01T02:37:04;-0.60;99.90
15386;DHT22;7791;47.246;9.648;2023-02-01T02:39:41;-0.80;99.90
15386;DHT22;7791;47.246;9.648;2023-02-01T02:42:14;-0.80;99.90
15386;DHT22;7791;47.246;9.648;2023-02-01T02:44:47;-0.90;99.90
15386;DHT22;7791;47.246;9.648;2023-02-01T02:47:20;-1.10;99.90
15386;DHT22;7791;47.246;9.648;2023-02-01T02:49:52;-1.10;99.90
15386;DHT22;7791;47.246;9.648;2023-02-01T02:52:21;-1.00;99.90
15386;DHT22;7791;47.246;9.648;2023-02-01T02:54:49;-1.00;99.90
15386;DHT22;7791;47.246;9.648;2023-02-01T02:57:22;-1.10;99.90
15386;DHT22;7791;47.246;9.648;2023-02-01T02:59:49;-1.20;99.90
15386;DHT22;7791;47.246;9.648;2023-02-01T03:02:18;-1.30;99.90
15386;DHT22;7791;47.246;9.648;2023-02-01T03:04:46;-1.40;99.90
15386;DHT22;7791;47.246;9.648;2023-02-01T03:10:37;-1.60;99.90
15386;DHT22;7791;47.246;9.648;2023-02-01T03:13:10;-1.70;99.90
15386;DHT22;7791;47.246;9.648;2023-02-01T03:15:57;-1.70;99.90
15386;DHT22;7791;47.246;9.648;2023-02-01T03:18:33;-1.80;99.90
15386;DHT22;7791;47.246;9.648;2023-02-01T03:21:22;-1.80;99.90
15386;DHT22;7791;47.246;9.648;2023-02-01T03:24:09;-1.90;99.90
15386;DHT22;7791;47.246;9.648;2023-02-01T03:26:55;-2.00;99.90
15386;DHT22;7791;47.246;9.648;2023-02-01T03:29:40;-2.00;99.90
15386;DHT22;7791;47.246;9.648;2023-02-01T03:32:19;-2.00;99.90
15386;DHT22;7791;47.246;9.648;2023-02-01T03:34:52;-2.00;99.90
15386;DHT22;7791;47.246;9.648;2023-02-01T03:37:45;-2.00;99.90
15386;DHT22;7791;47.246;9.648;2023-02-01T03:40:16;-2.00;99.90
15386;DHT22;7791;47.246;9.648;2023-02-01T03:46:14;-2.10;99.90
15386;DHT22;7791;47.246;9.648;2023-02-01T03:48:59;-2.20;99.90
15386;DHT22;7791;47.246;9.648;2023-02-01T03:51:26;-2.20;99.90
15386;DHT22;7791;47.246;9.648;2023-02-01T03:54:00;-2.10;99.90
15386;DHT22;7791;47.246;9.648;2023-02-01T03:57:06;-2.20;99.90
15386;DHT22;7791;47.246;9.648;2023-02-01T04:00:04;-2.30;99.90
15386;DHT22;7791;47.246;9.648;2023-02-01T04:03:00;-2.30;99.90
15386;DHT22;7791;47.246;9.648;2023-02-01T04:05:31;-2.40;99.90
15386;DHT22;7791;47.246;9.648;2023-02-01T04:08:01;-2.50;99.90
15386;DHT22;7791;47.246;9.648;2023-02-01T04:10:34;-2.30;99.90
15386;DHT22;7791;47.246;9.648;2023-02-01T04:13:20;-2.30;99.90
15386;DHT22;7791;47.246;9.648;2023-02-01T04:16:34;-2.20;99.90
15386;DHT22;7791;47.246;9.648;2023-02-01T04:19:14;-2.20;99.90
15386;DHT22;7791;47.246;9.648;2023-02-01T04:27:41;-2.30;99.90
15386;DHT22;7791;47.246;9.648;2023-02-01T04:33:05;-2.10;99.90
15386;DHT22;7791;47.246;9.648;2023-02-01T04:36:05;-2.30;99.90
15386;DHT22;7791;47.246;9.648;2023-02-01T04:38:39;-2.30;99.90
15386;DHT22;7791;47.246;9.648;2023-02-01T04:41:12;-2.50;99.90
15386;DHT22;7791;47.246;9.648;2023-02-01T04:47:13;-2.50;99.90
15386;DHT22;7791;47.246;9.648;2023-02-01T04:50:29;-2.50;99.90
15386;DHT22;7791;47.246;9.648;2023-02-01T04:53:02;-2.30;99.90
15386;DHT22;7791;47.246;9.648;2023-02-01T04:55:41;-2.30;99.90
15386;DHT22;7791;47.246;9.648;2023-02-01T04:58:32;-2.20;99.90
15386;DHT22;7791;47.246;9.648;2023-02-01T05:01:22;-2.00;99.90
15386;DHT22;7791;47.246;9.648;2023-02-01T05:04:20;-1.80;99.90
15386;DHT22;7791;47.246;9.648;2023-02-01T06:04:23;-0.50;99.90
15386;DHT22;7791;47.246;9.648;2023-02-01T06:07:25;-0.30;99.90
15386;DHT22;7791;47.246;9.648;2023-02-01T06:10:25;-0.20;99.90
15386;DHT22;7791;47.246;9.648;2023-02-01T06:13:10;-0.10;99.90
15386;DHT22;7791;47.246;9.648;2023-02-01T06:15:54;-0.10;99.90
15386;DHT22;7791;47.246;9.648;2023-02-01T10:54:38;5.30;99.90
15386;DHT22;7791;47.246;9.648;2023-02-01T12:45:30;10.10;99.20
15386;DHT22;7791;47.246;9.648;2023-02-01T12:51:17;8.00;99.90
15386;DHT22;7791;47.246;9.648;2023-02-01T12:53:50;7.50;99.90
15386;DHT22;7791;47.246;9.648;2023-02-01T12:56:47;7.20;99.90
15386;DHT22;7791;47.246;9.648;2023-02-01T12:59:31;6.90;99.90
15386;DHT22;7791;47.246;9.648;2023-02-01T13:02:06;7.00;99.90
15386;DHT22;7791;47.246;9.648;2023-02-01T13:04:49;7.00;99.90
15386;DHT22;7791;47.246;9.648;2023-02-01T13:07:20;7.60;99.90
15386;DHT22;7791;47.246;9.648;2023-02-01T13:09:55;8.10;99.90
15386;DHT22;7791;47.246;9.648;2023-02-01T13:12:32;8.60;99.90
15386;DHT22;7791;47.246;9.648;2023-02-01T13:15:03;8.80;99.90
15386;DHT22;7791;47.246;9.648;2023-02-01T13:17:35;9.00;99.90
15386;DHT22;7791;47.246;9.648;2023-02-01T13:20:10;8.50;99.90
15386;DHT22;7791;47.246;9.648;2023-02-01T13:22:43;8.10;99.90
15386;DHT22;7791;47.246;9.648;2023-02-01T13:25:13;8.00;99.90
15386;DHT22;7791;47.246;9.648;2023-02-01T13:27:41;7.60;99.90
15386;DHT22;7791;47.246;9.648;2023-02-01T14:49:52;6.60;99.90
15386;DHT22;7791;47.246;9.648;2023-02-01T14:52:22;6.60;99.90
15386;DHT22;7791;47.246;9.648;2023-02-01T14:54:55;6.40;99.90
15386;DHT22;7791;47.246;9.648;2023-02-01T14:57:26;6.40;99.90
15386;DHT22;7791;47.246;9.648;2023-02-01T14:59:59;6.30;99.90
15386;DHT22;7791;47.246;9.648;2023-02-01T15:02:26;6.20;99.90
15386;DHT22;7791;47.246;9.648;2023-02-01T15:04:56;6.20;99.90
15386;DHT22;7791;47.246;9.648;2023-02-01T15:07:24;6.10;99.90
15386;DHT22;7791;47.246;9.648;2023-02-01T15:09:52;6.10;99.90
15386;DHT22;7791;47.246;9.648;2023-02-01T15:12:23;6.20;99.90
15386;DHT22;7791;47.246;9.648;2023-02-01T15:15:10;6.20;99.90
15386;DHT22;7791;47.246;9.648;2023-02-01T15:17:36;6.30;99.90
15386;DHT22;7791;47.246;9.648;2023-02-01T15:20:11;6.40;99.90
15386;DHT22;7791;47.246;9.648;2023-02-01T15:22:38;6.70;99.90
15386;DHT22;7791;47.246;9.648;2023-02-01T15:25:04;6.70;99.90
15386;DHT22;7791;47.246;9.648;2023-02-01T15:27:31;6.70;99.90
15386;DHT22;7791;47.246;9.648;2023-02-01T15:30:05;6.60;99.90
15386;DHT22;7791;47.246;9.648;2023-02-01T15:32:34;6.80;99.90
15386;DHT22;7791;47.246;9.648;2023-02-01T15:35:00;7.00;99.90
15386;DHT22;7791;47.246;9.648;2023-02-01T15:37:28;7.30;99.90
15386;DHT22;7791;47.246;9.648;2023-02-01T15:40:22;7.20;99.90
15386;DHT22;7791;47.246;9.648;2023-02-01T15:42:51;6.70;99.90
15386;DHT22;7791;47.246;9.648;2023-02-01T15:45:19;6.70;99.90
15386;DHT22;7791;47.246;9.648;2023-02-01T15:47:47;6.60;99.90
15386;DHT22;7791;47.246;9.648;2023-02-01T15:50:15;6.70;99.90
15386;DHT22;7791;47.246;9.648;2023-02-01T15:52:48;6.70;99.90
15386;DHT22;7791;47.246;9.648;2023-02-01T15:55:20;6.60;99.90
15386;DHT22;7791;47.246;9.648;2023-02-01T15:57:46;6.40;99.90
15386;DHT22;7791;47.246;9.648;2023-02-01T16:00:22;6.40;99.90
15386;DHT22;7791;47.246;9.648;2023-02-01T16:02:53;6.10;99.90
15386;DHT22;7791;47.246;9.648;2023-02-01T16:05:29;6.10;99.90
15386;DHT22;7791;47.246;9.648;2023-02-01T16:08:04;6.20;99.90
15386;DHT22;7791;47.246;9.648;2023-02-01T16:10:38;6.20;99.90
15386;DHT22;7791;47.246;9.648;2023-02-01T16:13:04;6.30;99.90
15386;DHT22;7791;47.246;9.648;2023-02-01T16:15:31;6.40;99.90
15386;DHT22;7791;47.246;9.648;2023-02-01T16:17:56;6.40;99.90
15386;DHT22;7791;47.246;9.648;2023-02-01T16:20:22;6.50;99.90
15386;DHT22;7791;47.246;9.648;2023-02-01T16:22:52;6.50;99.90
15386;DHT22;7791;47.246;9.648;2023-02-01T16:25:20;6.50;99.90
15386;DHT22;7791;47.246;9.648;2023-02-01T16:27:46;6.40;99.90
15386;DHT22;7791;47.246;9.648;2023-02-01T16:30:12;6.20;99.90
15386;DHT22;7791;47.246;9.648;2023-02-01T16:32:38;6.10;99.90
15386;DHT22;7791;47.246;9.648;2023-02-01T16:35:13;6.00;99.90
15386;DHT22;7791;47.246;9.648;2023-02-01T16:37:41;6.10;99.90
15386;DHT22;7791;47.246;9.648;2023-02-01T16:40:13;6.30;99.90
15386;DHT22;7791;47.246;9.648;2023-02-01T16:42:45;6.30;99.90
15386;DHT22;7791;47.246;9.648;2023-02-01T16:45:12;6.30;99.90
15386;DHT22;7791;47.246;9.648;2023-02-01T16:47:40;6.40;99.90
15386;DHT22;7791;47.246;9.648;2023-02-01T16:50:15;6.40;99.90
15386;DHT22;7791;47.246;9.648;2023-02-01T16:52:44;6.30;99.90
15386;DHT22;7791;47.246;9.648;2023-02-01T16:55:14;6.20;99.90
15386;DHT22;7791;47.246;9.648;2023-02-01T16:57:44;6.20;99.90
15386;DHT22;7791;47.246;9.648;2023-02-01T17:00:12;6.30;99.90
15386;DHT22;7791;47.246;9.648;2023-02-01T17:02:42;6.30;99.90
15386;DHT22;7791;47.246;9.648;2023-02-01T17:05:08;6.30;99.90
15386;DHT22;7791;47.246;9.648;2023-02-01T17:07:37;6.40;99.90
15386;DHT22;7791;47.246;9.648;2023-02-01T17:10:12;6.40;99.90
15386;DHT22;7791;47.246;9.648;2023-02-01T17:12:55;6.50;99.90
15386;DHT22;7791;47.246;9.648;2023-02-01T17:15:21;6.60;99.90
15386;DHT22;7791;47.246;9.648;2023-02-01T17:17:49;6.60;99.90
15386;DHT22;7791;47.246;9.648;2023-02-01T17:20:23;6.60;99.90
15386;DHT22;7791;47.246;9.648;2023-02-01T17:22:52;6.50;99.90
15386;DHT22;7791;47.246;9.648;2023-02-01T17:25:19;6.40;99.90
15386;DHT22;7791;47.246;9.648;2023-02-01T17:27:48;6.40;99.90
15386;DHT22;7791;47.246;9.648;2023-02-01T17:30:16;6.40;99.90
15386;DHT22;7791;47.246;9.648;2023-02-01T17:32:56;6.20;99.90
15386;DHT22;7791;47.246;9.648;2023-02-01T17:35:26;6.10;99.90
15386;DHT22;7791;47.246;9.648;2023-02-01T17:37:55;6.00;99.90
15386;DHT22;7791;47.246;9.648;2023-02-01T17:40:21;6.00;99.90
15386;DHT22;7791;47.246;9.648;2023-02-01T17:43:03;5.80;99.90
15386;DHT22;7791;47.246;9.648;2023-02-01T17:45:37;5.50;99.90
15386;DHT22;7791;47.246;9.648;2023-02-01T17:48:04;5.20;99.90
15386;DHT22;7791;47.246;9.648;2023-02-01T17:50:32;5.20;99.90
15386;DHT22;7791;47.246;9.648;2023-02-01T17:53:01;5.30;99.90
15386;DHT22;7791;47.246;9.648;2023-02-01T17:55:31;5.30;99.90
15386;DHT22;7791;47.246;9.648;2023-02-01T17:58:01;5.10;99.90
15386;DHT22;7791;47.246;9.648;2023-02-01T18:00:30;4.90;99.90
15386;DHT22;7791;47.246;9.648;2023-02-01T18:03:03;4.80;99.90
15386;DHT22;7791;47.246;9.648;2023-02-01T18:05:37;4.70;99.90
15386;DHT22;7791;47.246;9.648;2023-02-01T18:08:05;5.00;99.90
15386;DHT22;7791;47.246;9.648;2023-02-01T18:10:31;5.10;99.90
15386;DHT22;7791;47.246;9.648;2023-02-01T18:13:00;5.50;99.90
15386;DHT22;7791;47.246;9.648;2023-02-01T18:15:40;5.60;99.90
15386;DHT22;7791;47.246;9.648;2023-02-01T18:18:08;5.60;99.90
15386;DHT22;7791;47.246;9.648;2023-02-01T18:20:35;5.50;99.90
15386;DHT22;7791;47.246;9.648;2023-02-01T18:23:01;5.30;99.90
15386;DHT22;7791;47.246;9.648;2023-02-01T18:25:50;5.50;99.90
15386;DHT22;7791;47.246;9.648;2023-02-01T18:28:19;5.70;99.90
15386;DHT22;7791;47.246;9.648;2023-02-01T18:30:49;5.90;99.90
15386;DHT22;7791;47.246;9.648;2023-02-01T18:33:34;6.10;99.90
15386;DHT22;7791;47.246;9.648;2023-02-01T18:36:02;6.20;99.90
15386;DHT22;7791;47.246;9.648;2023-02-01T18:38:36;6.30;99.90
15386;DHT22;7791;47.246;9.648;2023-02-01T18:41:16;6.40;99.90
15386;DHT22;7791;47.246;9.648;2023-02-01T18:43:43;6.40;99.90
15386;DHT22;7791;47.246;9.648;2023-02-01T18:46:13;6.40;99.90
15386;DHT22;7791;47.246;9.648;2023-02-01T18:48:59;6.50;99.90
15386;DHT22;7791;47.246;9.648;2023-02-01T18:51:25;6.50;99.90
15386;DHT22;7791;47.246;9.648;2023-02-01T18:53:54;6.50;99.90
15386;DHT22;7791;47.246;9.648;2023-02-01T19:02:14;6.50;99.90
15386;DHT22;7791;47.246;9.648;2023-02-01T19:04:40;6.40;99.90
15386;DHT22;7791;47.246;9.648;2023-02-01T19:07:06;6.40;99.90
15386;DHT22;7791;47.246;9.648;2023-02-01T19:09:32;6.50;99.90
15386;DHT22;7791;47.246;9.648;2023-02-01T19:11:58;6.50;99.90
15386;DHT22;7791;47.246;9.648;2023-02-01T19:14:23;6.40;99.90
15386;DHT22;7791;47.246;9.648;2023-02-01T19:19:54;6.40;99.90
15386;DHT22;7791;47.246;9.648;2023-02-01T19:22:19;6.40;99.90
15386;DHT22;7791;47.246;9.648;2023-02-01T19:24:45;6.40;99.90
15386;DHT22;7791;47.246;9.648;2023-02-01T19:27:11;6.50;99.90
15386;DHT22;7791;47.246;9.648;2023-02-01T19:29:37;6.50;99.90
15386;DHT22;7791;47.246;9.648;2023-02-01T19:32:24;6.60;99.90
15386;DHT22;7791;47.246;9.648;2023-02-01T19:34:50;6.60;99.90
15386;DHT22;7791;47.246;9.648;2023-02-01T19:37:17;6.50;99.90
15386;DHT22;7791;47.246;9.648;2023-02-01T19:39:43;6.30;99.90
15386;DHT22;7791;47.246;9.648;2023-02-01T19:42:09;6.10;99.90
15386;DHT22;7791;47.246;9.648;2023-02-01T19:44:35;6.10;99.90
15386;DHT22;7791;47.246;9.648;2023-02-01T19:47:04;6.30;99.90
15386;DHT22;7791;47.246;9.648;2023-02-01T19:49:30;6.30;99.90
15386;DHT22;7791;47.246;9.648;2023-02-01T19:51:56;6.30;99.90
15386;DHT22;7791;47.246;9.648;2023-02-01T19:54:23;6.10;99.90
15386;DHT22;7791;47.246;9.648;2023-02-01T19:56:49;5.90;99.90
15386;DHT22;7791;47.246;9.648;2023-02-01T19:59:14;5.80;99.90
15386;DHT22;7791;47.246;9.648;2023-02-01T20:01:40;5.70;99.90
15386;DHT22;7791;47.246;9.648;2023-02-01T20:04:06;5.80;99.90
15386;DHT22;7791;47.246;9.648;2023-02-01T20:06:36;5.70;99.90
15386;DHT22;7791;47.246;9.648;2023-02-01T20:09:02;5.60;99.90
15386;DHT22;7791;47.246;9.648;2023-02-01T20:11:30;5.60;99.90
15386;DHT22;7791;47.246;9.648;2023-02-01T20:13:56;5.40;99.90
15386;DHT22;7791;47.246;9.648;2023-02-01T20:16:23;5.10;99.90
15386;DHT22;7791;47.246;9.648;2023-02-01T20:18:54;5.20;99.90
15386;DHT22;7791;47.246;9.648;2023-02-01T20:21:19;5.10;99.90
15386;DHT22;7791;47.246;9.648;2023-02-01T20:23:46;5.10;99.90
15386;DHT22;7791;47.246;9.648;2023-02-01T20:26:12;5.10;99.90
15386;DHT22;7791;47.246;9.648;2023-02-01T20:28:39;5.00;99.90
15386;DHT22;7791;47.246;9.648;2023-02-01T20:31:08;5.00;99.90
15386;DHT22;7791;47.246;9.648;2023-02-01T20:33:33;5.00;99.90
15386;DHT22;7791;47.246;9.648;2023-02-01T20:35:59;5.20;99.90
15386;DHT22;7791;47.246;9.648;2023-02-01T20:38:25;5.40;99.90
15386;DHT22;7791;47.246;9.648;2023-02-01T20:40:51;5.50;99.90
15386;DHT22;7791;47.246;9.648;2023-02-01T20:43:17;5.70;99.90
15386;DHT22;7791;47.246;9.648;2023-02-01T20:45:44;5.60;99.90
15386;DHT22;7791;47.246;9.648;2023-02-01T20:48:14;5.40;99.90
15386;DHT22;7791;47.246;9.648;2023-02-01T20:50:40;5.40;99.90
15386;DHT22;7791;47.246;9.648;2023-02-01T20:53:06;5.40;99.90
15386;DHT22;7791;47.246;9.648;2023-02-01T20:55:32;5.50;99.90
15386;DHT22;7791;47.246;9.648;2023-02-01T20:57:58;5.60;99.90
15386;DHT22;7791;47.246;9.648;2023-02-01T21:00:24;5.50;99.90
15386;DHT22;7791;47.246;9.648;2023-02-01T21:02:51;5.40;99.90
15386;DHT22;7791;47.246;9.648;2023-02-01T21:05:18;5.30;99.90
15386;DHT22;7791;47.246;9.648;2023-02-01T21:07:52;5.30;99.90
15386;DHT22;7791;47.246;9.648;2023-02-01T21:10:20;5.30;99.90
15386;DHT22;7791;47.246;9.648;2023-02-01T21:12:46;5.30;99.90
15386;DHT22;7791;47.246;9.648;2023-02-01T21:15:13;5.00;99.90
15386;DHT22;7791;47.246;9.648;2023-02-01T21:17:59;5.10;99.90
15386;DHT22;7791;47.246;9.648;2023-02-01T21:20:24;5.20;99.90
15386;DHT22;7791;47.246;9.648;2023-02-01T21:22:51;5.20;99.90
15386;DHT22;7791;47.246;9.648;2023-02-01T21:25:17;5.40;99.90
15386;DHT22;7791;47.246;9.648;2023-02-01T21:27:43;5.40;99.90
15386;DHT22;7791;47.246;9.648;2023-02-01T21:30:10;5.20;99.90
15386;DHT22;7791;47.246;9.648;2023-02-01T21:32:36;5.00;99.90
15386;DHT22;7791;47.246;9.648;2023-02-01T21:35:04;4.90;99.90
15386;DHT22;7791;47.246;9.648;2023-02-01T21:37:30;5.00;99.90
15386;DHT22;7791;47.246;9.648;2023-02-01T21:39:55;4.90;99.90
15386;DHT22;7791;47.246;9.648;2023-02-01T21:42:21;5.00;99.90
15386;DHT22;7791;47.246;9.648;2023-02-01T21:44:47;5.00;99.90
15386;DHT22;7791;47.246;9.648;2023-02-01T21:47:14;5.00;99.90
15386;DHT22;7791;47.246;9.648;2023-02-01T21:49:40;5.00;99.90
15386;DHT22;7791;47.246;9.648;2023-02-01T21:52:07;4.80;99.90
15386;DHT22;7791;47.246;9.648;2023-02-01T21:54:32;4.80;99.90
15386;DHT22;7791;47.246;9.648;2023-02-01T21:56:58;4.90;99.90
15386;DHT22;7791;47.246;9.648;2023-02-01T21:59:24;5.00;99.90
15386;DHT22;7791;47.246;9.648;2023-02-01T22:01:50;5.00;99.90
15386;DHT22;7791;47.246;9.648;2023-02-01T22:04:15;4.70;99.90
15386;DHT22;7791;47.246;9.648;2023-02-01T22:06:42;4.70;99.90
15386;DHT22;7791;47.246;9.648;2023-02-01T22:09:14;4.60;99.90
15386;DHT22;7791;47.246;9.648;2023-02-01T22:11:41;4.50;99.90
15386;DHT22;7791;47.246;9.648;2023-02-01T22:14:07;4.40;99.90
15386;DHT22;7791;47.246;9.648;2023-02-01T22:16:34;4.30;99.90
15386;DHT22;7791;47.246;9.648;2023-02-01T22:18:59;4.20;99.90
15386;DHT22;7791;47.246;9.648;2023-02-01T22:21:25;4.20;99.90
15386;DHT22;7791;47.246;9.648;2023-02-01T22:26:28;4.50;99.90
15386;DHT22;7791;47.246;9.648;2023-02-01T22:29:05;4.70;99.90
15386;DHT22;7791;47.246;9.648;2023-02-01T22:31:35;4.40;99.90
15386;DHT22;7791;47.246;9.648;2023-02-01T22:34:07;4.20;99.90
15386;DHT22;7791;47.246;9.648;2023-02-01T22:36:40;4.60;99.90
15386;DHT22;7791;47.246;9.648;2023-02-01T22:39:13;4.70;99.90
15386;DHT22;7791;47.246;9.648;2023-02-01T22:42:00;4.60;99.90
15386;DHT22;7791;47.246;9.648;2023-02-01T22:44:26;4.40;99.90
15386;DHT22;7791;47.246;9.648;2023-02-01T22:46:54;4.30;99.90
15386;DHT22;7791;47.246;9.648;2023-02-01T22:49:20;4.20;99.90
15386;DHT22;7791;47.246;9.648;2023-02-01T22:51:46;4.20;99.90
15386;DHT22;7791;47.246;9.648;2023-02-01T22:54:15;4.20;99.90
15386;DHT22;7791;47.246;9.648;2023-02-01T22:56:45;4.10;99.90
15386;DHT22;7791;47.246;9.648;2023-02-01T22:59:12;4.10;99.90
15386;DHT22;7791;47.246;9.648;2023-02-01T23:01:56;4.10;99.90
15386;DHT22;7791;47.246;9.648;2023-02-01T23:04:24;4.10;99.90
15386;DHT22;7791;47.246;9.648;2023-02-01T23:06:53;4.10;99.90
15386;DHT22;7791;47.246;9.648;2023-02-01T23:09:22;4.20;99.90
15386;DHT22;7791;47.246;9.648;2023-02-01T23:11:52;4.30;99.90
15386;DHT22;7791;47.246;9.648;2023-02-01T23:14:20;4.30;99.90
15386;DHT22;7791;47.246;9.648;2023-02-01T23:16:49;4.30;99.90
15386;DHT22;7791;47.246;9.648;2023-02-01T23:19:38;4.40;99.90
15386;DHT22;7791;47.246;9.648;2023-02-01T23:24:56;4.50;99.90
15386;DHT22;7791;47.246;9.648;2023-02-01T23:27:24;4.40;99.90
15386;DHT22;7791;47.246;9.648;2023-02-01T23:29:55;4.20;99.90
15386;DHT22;7791;47.246;9.648;2023-02-01T23:32:26;4.20;99.90
15386;DHT22;7791;47.246;9.648;2023-02-01T23:34:54;4.20;99.90
15386;DHT22;7791;47.246;9.648;2023-02-01T23:37:20;4.30;99.90
15386;DHT22;7791;47.246;9.648;2023-02-01T23:39:52;4.30;99.90
15386;DHT22;7791;47.246;9.648;2023-02-01T23:42:20;4.50;99.90
15386;DHT22;7791;47.246;9.648;2023-02-01T23:44:47;4.50;99.90
15386;DHT22;7791;47.246;9.648;2023-02-01T23:47:13;4.60;99.90
15386;DHT22;7791;47.246;9.648;2023-02-01T23:49:39;4.60;99.90
15386;DHT22;7791;47.246;9.648;2023-02-01T23:52:09;4.50;99.90
15386;DHT22;7791;47.246;9.648;2023-02-01T23:54:36;4.40;99.90
15386;DHT22;7791;47.246;9.648;2023-02-01T23:57:02;4.40;99.90
15386;DHT22;7791;47.246;9.648;2023-02-01T23:59:27;4.30;99.90
